createdAt,value
2023-03-06T00:01:53.269Z,525.00
2023-03-06T00:05:53.450Z,524.00
2023-03-06T00:09:53.447Z,523.00
2023-03-06T00:13:53.536Z,527.00
2023-03-06T00:17:53.512Z,528.00
2023-03-06T00:21:53.545Z,523.00
2023-03-06T00:25:53.540Z,522.00
2023-03-06T00:29:53.561Z,521.00
2023-03-06T00:33:53.591Z,518.00
2023-03-06T00:37:53.617Z,522.00
2023-03-06T00:41:53.585Z,524.00
2023-03-06T00:45:53.674Z,518.00
2023-03-06T00:49:53.632Z,518.00
2023-03-06T00:53:53.670Z,521.00
2023-03-06T00:57:53.648Z,527.00
2023-03-06T01:01:53.699Z,527.00
2023-03-06T01:05:53.614Z,530.00
2023-03-06T01:09:53.557Z,528.00
2023-03-06T01:13:53.526Z,526.00
2023-03-06T01:17:53.487Z,527.00
2023-03-06T01:21:53.444Z,522.00
2023-03-06T01:25:53.400Z,521.00
2023-03-06T01:29:53.354Z,519.00
2023-03-06T01:33:53.326Z,522.00
2023-03-06T01:37:53.335Z,519.00
2023-03-06T01:41:53.251Z,524.00
2023-03-06T01:45:53.254Z,518.00
2023-03-06T01:49:53.196Z,518.00
2023-03-06T01:53:53.223Z,518.00
2023-03-06T01:57:53.242Z,522.00
2023-03-06T02:01:53.320Z,523.00
2023-03-06T02:05:53.345Z,516.00
2023-03-06T02:09:53.463Z,520.00
2023-03-06T02:13:53.395Z,518.00
2023-03-06T02:17:53.361Z,518.00
2023-03-06T02:21:53.337Z,517.00
2023-03-06T02:25:53.286Z,515.00
2023-03-06T02:29:53.232Z,516.00
2023-03-06T02:33:53.211Z,514.00
2023-03-06T02:37:53.173Z,516.00
2023-03-06T02:41:53.138Z,519.00
2023-03-06T02:45:53.159Z,514.00
2023-03-06T02:49:53.065Z,513.00
2023-03-06T02:53:53.036Z,514.00
2023-03-06T02:57:52.979Z,514.00
2023-03-06T03:01:53.050Z,514.00
2023-03-06T03:05:52.933Z,519.00
2023-03-06T03:09:52.840Z,517.00
2023-03-06T03:13:52.861Z,521.00
2023-03-06T03:17:52.799Z,518.00
2023-03-06T03:21:52.788Z,515.00
2023-03-06T03:25:52.732Z,516.00
2023-03-06T03:29:52.696Z,520.00
2023-03-06T03:33:52.675Z,520.00
2023-03-06T03:37:52.773Z,517.00
2023-03-06T03:41:52.878Z,512.00
2023-03-06T03:45:52.975Z,513.00
2023-03-06T03:49:53.038Z,516.00
2023-03-06T03:53:53.138Z,516.00
2023-03-06T03:57:53.262Z,514.00
2023-03-06T04:01:53.412Z,514.00
2023-03-06T04:05:53.499Z,511.00
2023-03-06T04:09:53.550Z,507.00
2023-03-06T04:13:53.629Z,509.00
2023-03-06T04:17:53.759Z,511.00
2023-03-06T04:21:53.865Z,509.00
2023-03-06T04:25:53.953Z,505.00
2023-03-06T04:29:54.084Z,503.00
2023-03-06T04:33:54.207Z,510.00
2023-03-06T04:37:54.322Z,512.00
2023-03-06T04:41:54.436Z,512.00
2023-03-06T04:45:54.569Z,509.00
2023-03-06T04:49:54.774Z,509.00
2023-03-06T04:53:54.745Z,508.00
2023-03-06T04:57:54.910Z,504.00
2023-03-06T05:01:55.057Z,502.00
2023-03-06T05:05:55.159Z,508.00
2023-03-06T05:09:55.280Z,520.00
2023-03-06T05:13:55.366Z,531.00
2023-03-06T05:17:55.471Z,534.00
2023-03-06T05:21:55.559Z,554.00
2023-03-06T05:25:55.648Z,559.00
2023-03-06T05:29:55.808Z,570.00
2023-03-06T05:33:55.936Z,569.00
2023-03-06T05:37:56.098Z,566.00
2023-03-06T05:41:56.215Z,568.00
2023-03-06T05:45:56.425Z,565.00
2023-03-06T05:49:56.523Z,563.00
2023-03-06T05:53:56.698Z,565.00
2023-03-06T05:57:56.791Z,559.00
2023-03-06T06:01:57.042Z,562.00
2023-03-06T06:05:57.087Z,563.00
2023-03-06T06:09:57.215Z,569.00
2023-03-06T06:13:57.365Z,570.00
2023-03-06T06:17:57.525Z,568.00
2023-03-06T06:21:57.572Z,569.00
2023-03-06T06:25:57.719Z,572.00
2023-03-06T06:29:57.897Z,571.00
2023-03-06T06:33:57.892Z,1497.00
2023-03-06T06:37:57.999Z,915.00
2023-03-06T06:42:15.463Z,1231.00
2023-03-06T06:46:18.760Z,981.00
2023-03-06T06:49:59.046Z,969.00
2023-03-06T06:53:58.068Z,1004.00
2023-03-06T06:57:57.990Z,1043.00
2023-03-06T07:01:58.007Z,1077.00
2023-03-06T07:05:57.878Z,1129.00
2023-03-06T07:09:57.898Z,1176.00
2023-03-06T07:13:57.816Z,1218.00
2023-03-06T07:17:57.900Z,1224.00
2023-03-06T07:21:57.852Z,1230.00
2023-03-06T07:25:57.906Z,1258.00
2023-03-06T07:29:57.970Z,1273.00
2023-03-06T07:33:58.028Z,1274.00
2023-03-06T07:37:58.052Z,1307.00
2023-03-06T07:41:58.112Z,1276.00
2023-03-06T07:45:59.958Z,1245.00
2023-03-06T07:49:58.133Z,1201.00
2023-03-06T07:53:58.181Z,1202.00
2023-03-06T07:57:58.269Z,1185.00
2023-03-06T08:01:58.286Z,1164.00
2023-03-06T08:05:58.390Z,1134.00
2023-03-06T08:09:58.461Z,1119.00
2023-03-06T08:13:58.525Z,1116.00
2023-03-06T08:17:58.578Z,1115.00
2023-03-06T08:21:58.657Z,1093.00
2023-03-06T08:25:58.716Z,1102.00
2023-03-06T08:29:58.746Z,1102.00
2023-03-06T08:33:58.946Z,970.00
2023-03-06T08:37:58.989Z,1003.00
2023-03-06T08:41:59.495Z,1096.00
2023-03-06T08:45:58.919Z,1118.00
2023-03-06T08:50:00.598Z,1132.00
2023-03-06T08:57:12.802Z,1204.00
2023-03-06T09:01:12.807Z,1160.00
2023-03-06T09:05:12.758Z,1006.00
2023-03-06T09:09:12.708Z,967.00
2023-03-06T09:13:12.665Z,1003.00
2023-03-06T09:17:12.633Z,1065.00
2023-03-06T09:21:12.550Z,1360.00
2023-03-06T09:25:12.536Z,960.00
2023-03-06T09:29:12.562Z,793.00
2023-03-06T09:33:12.474Z,680.00
2023-03-06T09:37:12.435Z,640.00
2023-03-06T09:41:12.869Z,629.00
2023-03-06T09:45:12.391Z,730.00
2023-03-06T09:49:12.855Z,749.00
2023-03-06T09:53:12.254Z,746.00
2023-03-06T09:57:12.248Z,785.00
2023-03-06T10:01:12.176Z,804.00
2023-03-06T10:05:12.954Z,880.00
2023-03-06T10:09:12.844Z,951.00
2023-03-06T10:13:12.669Z,1000.00
2023-03-06T10:17:12.827Z,1029.00
2023-03-06T10:21:19.125Z,1055.00
2023-03-06T10:25:13.878Z,1083.00
2023-03-06T10:29:12.851Z,1108.00
2023-03-06T10:33:12.873Z,1123.00
2023-03-06T10:37:12.881Z,1137.00
2023-03-06T10:41:12.826Z,1161.00
2023-03-06T10:45:12.803Z,1160.00
2023-03-06T10:49:12.760Z,1157.00
2023-03-06T10:53:12.687Z,1167.00
2023-03-06T10:57:12.646Z,1166.00
2023-03-06T11:01:12.649Z,1173.00
2023-03-06T11:05:12.605Z,1177.00
2023-03-06T11:09:23.268Z,1163.00
2023-03-06T11:13:12.559Z,1164.00
2023-03-06T11:17:12.478Z,1179.00
2023-03-06T11:21:12.474Z,1207.00
2023-03-06T11:25:12.544Z,1050.00
2023-03-06T11:29:14.187Z,930.00
2023-03-06T11:33:20.466Z,835.00
2023-03-06T11:37:12.411Z,797.00
2023-03-06T11:41:12.394Z,781.00
2023-03-06T11:45:12.358Z,826.00
2023-03-06T11:49:12.520Z,868.00
2023-03-06T11:53:12.682Z,890.00
2023-03-06T11:57:12.745Z,894.00
2023-03-06T12:01:12.778Z,893.00
2023-03-06T12:05:12.844Z,943.00
2023-03-06T12:09:12.996Z,971.00
2023-03-06T12:13:13.340Z,994.00
2023-03-06T12:17:13.411Z,1047.00
2023-03-06T12:21:13.587Z,1062.00
2023-03-06T12:25:13.828Z,998.00
2023-03-06T12:29:13.985Z,945.00
2023-03-06T12:33:14.232Z,897.00
2023-03-06T12:37:14.197Z,864.00
2023-03-06T12:41:14.146Z,832.00
2023-03-06T12:45:14.080Z,813.00
2023-03-06T12:49:23.027Z,781.00
2023-03-06T12:53:15.064Z,757.00
2023-03-06T12:57:13.976Z,731.00
2023-03-06T13:01:14.020Z,706.00
2023-03-06T13:05:14.516Z,828.00
2023-03-06T13:09:14.256Z,891.00
2023-03-06T13:13:14.286Z,963.00
2023-03-06T13:17:14.473Z,1021.00
2023-03-06T13:21:14.441Z,1046.00
2023-03-06T13:25:14.377Z,1058.00
2023-03-06T13:29:14.296Z,967.00
2023-03-06T13:33:14.326Z,954.00
2023-03-06T13:37:14.273Z,923.00
2023-03-06T13:41:14.475Z,803.00
2023-03-06T13:45:14.256Z,762.00
2023-03-06T13:49:14.183Z,797.00
2023-03-06T13:53:14.155Z,751.00
2023-03-06T13:57:14.067Z,762.00
2023-03-06T14:01:14.102Z,780.00
2023-03-06T14:05:14.047Z,748.00
2023-03-06T14:09:14.013Z,684.00
2023-03-06T14:13:13.935Z,777.00
2023-03-06T14:17:13.889Z,812.00
2023-03-06T14:21:13.833Z,855.00
2023-03-06T14:25:14.123Z,893.00
2023-03-06T14:29:14.243Z,908.00
2023-03-06T14:33:14.312Z,931.00
2023-03-06T14:37:14.394Z,930.00
2023-03-06T14:41:14.428Z,925.00
2023-03-06T14:45:14.409Z,1004.00
2023-03-06T14:49:14.414Z,980.00
2023-03-06T14:53:14.368Z,936.00
2023-03-06T14:57:14.372Z,901.00
2023-03-06T15:01:14.372Z,868.00
2023-03-06T15:05:15.015Z,830.00
2023-03-06T15:09:14.425Z,802.00
2023-03-06T15:13:14.488Z,778.00
2023-03-06T15:17:14.509Z,763.00
2023-03-06T15:21:14.598Z,748.00
2023-03-06T15:25:14.625Z,735.00
2023-03-06T15:29:14.682Z,725.00
2023-03-06T15:33:14.777Z,724.00
2023-03-06T15:37:14.928Z,727.00
2023-03-06T15:41:14.894Z,725.00
2023-03-06T15:45:15.024Z,725.00
2023-03-06T15:49:15.052Z,717.00
2023-03-06T15:53:15.120Z,712.00
2023-03-06T15:57:15.260Z,703.00
2023-03-06T16:01:15.340Z,699.00
2023-03-06T16:05:15.353Z,702.00
2023-03-06T16:09:15.446Z,695.00
2023-03-06T16:13:15.563Z,689.00
2023-03-06T16:17:15.693Z,689.00
2023-03-06T16:21:15.771Z,686.00
2023-03-06T16:25:15.855Z,685.00
2023-03-06T16:29:15.938Z,684.00
2023-03-06T16:33:16.108Z,678.00
2023-03-06T16:37:16.237Z,674.00
2023-03-06T16:41:16.302Z,674.00
2023-03-06T16:45:16.443Z,666.00
2023-03-06T16:49:16.617Z,666.00
2023-03-06T16:53:16.771Z,666.00
2023-03-06T16:57:16.894Z,665.00
2023-03-06T17:01:17.088Z,658.00
2023-03-06T17:05:17.257Z,658.00
2023-03-06T17:09:17.391Z,661.00
2023-03-06T17:13:17.557Z,661.00
2023-03-06T17:17:17.749Z,659.00
2023-03-06T17:21:17.876Z,658.00
2023-03-06T17:25:18.058Z,656.00
2023-03-06T17:29:18.261Z,656.00
2023-03-06T17:33:18.413Z,651.00
2023-03-06T17:37:18.662Z,648.00
2023-03-06T17:41:18.774Z,646.00
2023-03-06T17:45:18.969Z,644.00
2023-03-06T17:49:19.191Z,644.00
2023-03-06T17:53:19.319Z,643.00
2023-03-06T17:57:19.551Z,635.00
2023-03-06T18:01:19.839Z,632.00
2023-03-06T18:05:20.013Z,628.00
2023-03-06T18:09:20.247Z,632.00
2023-03-06T18:13:20.428Z,628.00
2023-03-06T18:17:20.654Z,631.00
2023-03-06T18:21:20.840Z,625.00
2023-03-06T18:25:20.870Z,627.00
2023-03-06T18:29:20.794Z,634.00
2023-03-06T18:33:20.762Z,631.00
2023-03-06T18:37:20.794Z,629.00
2023-03-06T18:41:20.671Z,630.00
2023-03-06T18:45:20.652Z,626.00
2023-03-06T18:49:20.620Z,626.00
2023-03-06T18:53:20.559Z,631.00
2023-03-06T18:57:20.513Z,648.00
2023-03-06T19:01:20.629Z,642.00
2023-03-06T19:05:20.597Z,638.00
2023-03-06T19:09:20.556Z,629.00
2023-03-06T19:13:20.499Z,630.00
2023-03-06T19:17:20.466Z,626.00
2023-03-06T19:21:20.453Z,623.00
2023-03-06T19:25:20.438Z,627.00
2023-03-06T19:29:20.429Z,625.00
2023-03-06T19:33:20.322Z,623.00
2023-03-06T19:37:20.310Z,618.00
2023-03-06T19:41:20.276Z,622.00
2023-03-06T19:45:20.237Z,619.00
2023-03-06T19:49:20.145Z,618.00
2023-03-06T19:53:20.139Z,615.00
2023-03-06T19:57:20.140Z,615.00
2023-03-06T20:01:20.144Z,615.00
2023-03-06T20:05:20.051Z,609.00
2023-03-06T20:09:19.982Z,611.00
2023-03-06T20:13:19.969Z,613.00
2023-03-06T20:17:19.932Z,614.00
2023-03-06T20:21:19.886Z,617.00
2023-03-06T20:25:19.864Z,617.00
2023-03-06T20:29:19.913Z,616.00
2023-03-06T20:33:19.894Z,613.00
2023-03-06T20:37:19.923Z,613.00
2023-03-06T20:41:19.881Z,610.00
2023-03-06T20:45:19.975Z,611.00
2023-03-06T20:49:19.966Z,609.00
2023-03-06T20:53:19.989Z,606.00
2023-03-06T20:57:19.960Z,604.00
2023-03-06T21:01:20.066Z,605.00
2023-03-06T21:05:20.017Z,604.00
2023-03-06T21:09:20.077Z,606.00
2023-03-06T21:13:20.015Z,604.00
2023-03-06T21:17:20.094Z,606.00
2023-03-06T21:21:20.133Z,601.00
2023-03-06T21:25:20.164Z,601.00
2023-03-06T21:29:20.121Z,604.00
2023-03-06T21:33:20.108Z,601.00
2023-03-06T21:37:20.128Z,602.00
2023-03-06T21:41:20.112Z,607.00
2023-03-06T21:45:20.135Z,601.00
2023-03-06T21:49:20.113Z,599.00
2023-03-06T21:53:20.081Z,597.00
2023-03-06T21:57:20.096Z,591.00
2023-03-06T22:01:20.250Z,590.00
2023-03-06T22:05:20.148Z,587.00
2023-03-06T22:09:20.240Z,584.00
2023-03-06T22:13:20.178Z,592.00
2023-03-06T22:17:20.217Z,594.00
2023-03-06T22:21:20.230Z,590.00
2023-03-06T22:25:20.264Z,588.00
2023-03-06T22:29:20.281Z,586.00
2023-03-06T22:33:20.357Z,583.00
2023-03-06T22:37:20.366Z,584.00
2023-03-06T22:41:20.463Z,579.00
2023-03-06T22:45:20.600Z,579.00
2023-03-06T22:49:20.547Z,582.00
2023-03-06T22:53:20.636Z,582.00
2023-03-06T22:57:20.675Z,584.00
2023-03-06T23:01:20.973Z,581.00
2023-03-06T23:05:20.943Z,583.00
2023-03-06T23:09:20.969Z,584.00
2023-03-06T23:13:21.098Z,586.00
2023-03-06T23:17:21.006Z,586.00
2023-03-06T23:21:21.046Z,590.00
2023-03-06T23:25:21.026Z,589.00
2023-03-06T23:29:21.103Z,593.00
2023-03-06T23:33:21.175Z,590.00
2023-03-06T23:37:21.149Z,581.00
2023-03-06T23:41:21.163Z,582.00
2023-03-06T23:45:21.262Z,582.00
2023-03-06T23:49:22.033Z,585.00
2023-03-06T23:53:21.273Z,589.00
2023-03-06T23:57:21.297Z,592.00
